Ames, Texas
Current Conditions -  °F | °C
As of 4:15 PM on Tuesday 25 Nov 2014 (Local Time) from K6R3 Reporting Station
Clear Clear  
Wind Chill: 64°   Ceiling: Unl
Heat Index: 64°   Visibility: 7mi
Dew Point: 31°   Wind: 0mph
Humidity: 29%   Direction: NA
Pressure: 30.22"   Gusts: NA
Location:  30.0821°N, 94.7401°W
Report Text: K6R3 252215Z AUTO 00000KT 7SM CLR 18/M01 A3022 RMK AO2 T01781007
Loading
Personal Weather Stations






























Interactive Weather Map New forecast layout! Learn more

10-Day Weather Forecast

Advertisements
Track Severe Weather on mobile